Time;durP1;ratioP1;P1;durP2;ratioP2;P2;SDS_P1;SDS_P2;PMS_P1;PMS_P2;Temp;Humidity;BMP_temperature;BMP_pressure;BME280_temperature;BME280_humidity;BME280_pressure;Samples;Min_cycle;Max_cycle;Signal;HPM_P1;HPM_P2
2021/01/14 00:00:26;;;;;;;;;;;;;;;;;;4979299;28;19951;-68
2021/01/14 00:02:52;;;;;;;;;;;;;;;;;;4980103;28;19926;-66
2021/01/14 00:05:19;;;;;;;;;;;;;;;;;;4974701;28;20029;-66
2021/01/14 00:07:45;;;;;;;;;;;;;;;;;;4976225;28;20390;-65
2021/01/14 00:10:12;;;;;;;;;;;;;;;;;;4983092;28;19934;-67
2021/01/14 00:12:38;;;;;;;;;;;;;;;;;;4975078;28;19926;-66
2021/01/14 00:15:05;;;;;;;;;;;;;;;;;;4982444;28;19984;-65
2021/01/14 00:17:31;;;;;;;;;;;;;;;;;;4982943;28;20026;-66
2021/01/14 00:19:58;;;;;;;;;;;;;;;;;;4983095;28;19927;-66
2021/01/14 00:22:24;;;;;;;;;;;;;;;;;;4979140;28;19926;-66
2021/01/14 00:24:50;;;;;;;;;;;;;;;;;;5002249;23;19932;-68
2021/01/14 00:27:17;;;;;;;;;;;;;;;;;;4993257;28;20378;-67
2021/01/14 00:29:43;;;;;;;;;;;;;;;;;;4993580;28;19936;-66
2021/01/14 00:32:10;;;;;;;;;;;;;;;;;;4992187;28;19958;-68
2021/01/14 00:34:36;;;;;;;;;;;;;;;;;;4992776;28;19926;-69
2021/01/14 00:39:48;;;;;;;;;;;;;;;;;;4991748;28;20013;-68
2021/01/14 00:42:14;;;;;;;;;;;;;;;;;;4992019;28;19976;-68
2021/01/14 00:44:40;;;;;;;;;;;;;;;;;;4992833;28;20013;-66
2021/01/14 00:47:07;;;;;;;;;;;;;;;;;;4992091;28;20330;-66
2021/01/14 00:49:33;;;;;;;;;;;;;;;;;;4992315;28;20311;-66
2021/01/14 00:52:00;;;;;;;;;;;;;;;;;;4992979;28;19984;-67
2021/01/14 00:54:26;;;;;;;;;;;;;;;;;;4992863;28;20288;-68
2021/01/14 00:56:53;;;;;;;;;;;;;;;;;;4992142;28;19926;-68
2021/01/14 00:59:19;;;;;;;;;;;;;;;;;;4992583;28;19926;-68
2021/01/14 01:01:46;;;;;;;;;;;;;;;;;;4992580;28;19972;-67
2021/01/14 01:04:12;;;;;;;;;;;;;;;;;;4993184;28;19926;-66
2021/01/14 01:06:38;;;;;;;;;;;;;;;;;;4993262;28;19972;-68
2021/01/14 01:09:05;;;;;;;;;;;;;;;;;;4992192;28;19932;-68
2021/01/14 01:11:31;;;;;;;;;;;;;;;;;;4992657;28;20019;-68
2021/01/14 01:13:58;;;;;;;;;;;;;;;;;;4993042;28;20411;-67
2021/01/14 01:16:24;;;;;;;;;;;;;;;;;;4991769;28;20354;-68
2021/01/14 01:18:51;;;;;;;;;;;;;;;;;;4992808;28;19926;-66
2021/01/14 01:21:17;;;;;;;;;;;;;;;;;;4991432;28;19953;-67
2021/01/14 01:23:44;;;;;;;;;;;;;;;;;;4992201;28;19988;-67
2021/01/14 01:26:10;;;;;;;;;;;;;;;;;;4992278;28;20014;-66
2021/01/14 01:28:37;;;;;;;;;;;;;;;;;;4992271;28;19926;-67
2021/01/14 01:31:03;;;;;;;;;;;;;;;;;;4992357;28;20380;-67
2021/01/14 01:33:30;;;;;;;;;;;;;;;;;;4992356;28;20384;-67
2021/01/14 01:35:56;;;;;;;;;;;;;;;;;;4992204;28;20017;-66
2021/01/14 01:38:22;;;;;;;;;;;;;;;;;;4991884;28;20029;-67
2021/01/14 01:40:49;;;;;;;;;;;;;;;;;;4991176;28;19933;-67
2021/01/14 01:43:15;;;;;;;;;;;;;;;;;;4992083;28;19930;-66
2021/01/14 01:45:43;;;;;;;;;;;;;;;;;;4992147;28;20008;-66
2021/01/14 01:48:10;;;;;;;;;;;;;;;;;;4991978;28;19926;-67
2021/01/14 01:50:36;;;;;;;;;;;;;;;;;;4992414;28;19926;-66
2021/01/14 01:53:03;;;;;;;;;;;;;;;;;;4991964;28;20450;-68
2021/01/14 01:55:29;;;;;;;;;;;;;;;;;;4987734;28;19926;-66
2021/01/14 01:57:56;;;;;;;;;;;;;;;;;;4992323;28;19930;-68
2021/01/14 02:00:22;;;;;;;;;;;;;;;;;;4991100;28;20137;-68
2021/01/14 02:02:48;;;;;;;;;;;;;;;;;;4991795;28;19926;-68
2021/01/14 02:05:15;;;;;;;;;;;;;;;;;;4991110;28;19926;-68
2021/01/14 02:07:41;;;;;;;;;;;;;;;;;;4990976;28;19926;-68
2021/01/14 02:10:08;;;;;;;;;;;;;;;;;;4991029;28;20311;-68
2021/01/14 02:12:34;;;;;;;;;;;;;;;;;;4990354;28;19926;-66
2021/01/14 02:15:01;;;;;;;;;;;;;;;;;;4991749;28;19954;-68
2021/01/14 02:17:27;;;;;;;;;;;;;;;;;;4990413;28;19937;-68
2021/01/14 02:19:54;;;;;;;;;;;;;;;;;;4991106;28;19929;-66
2021/01/14 02:22:20;;;;;;;;;;;;;;;;;;4990144;28;19960;-65
2021/01/14 02:24:46;;;;;;;;;;;;;;;;;;4990709;28;19933;-68
2021/01/14 02:27:13;;;;;;;;;;;;;;;;;;4991594;28;19926;-68
2021/01/14 02:29:39;;;;;;;;;;;;;;;;;;4992157;28;19948;-67
2021/01/14 02:32:06;;;;;;;;;;;;;;;;;;4990827;28;19926;-66
2021/01/14 02:34:32;;;;;;;;;;;;;;;;;;4991048;28;19926;-65
2021/01/14 02:36:59;;;;;;;;;;;;;;;;;;4991089;28;19925;-66
2021/01/14 02:39:25;;;;;;;;;;;;;;;;;;4991037;28;19926;-67
2021/01/14 02:41:51;;;;;;;;;;;;;;;;;;4991177;28;19925;-65
2021/01/14 02:44:18;;;;;;;;;;;;;;;;;;4990590;28;19929;-66
2021/01/14 02:46:44;;;;;;;;;;;;;;;;;;4991452;28;20029;-67
2021/01/14 02:49:11;;;;;;;;;;;;;;;;;;4990453;28;19926;-66
2021/01/14 02:51:37;;;;;;;;;;;;;;;;;;4991276;28;20416;-63
2021/01/14 02:54:04;;;;;;;;;;;;;;;;;;4989788;28;19944;-67
2021/01/14 02:56:31;;;;;;;;;;;;;;;;;;4991131;28;19925;-67
2021/01/14 02:58:57;;;;;;;;;;;;;;;;;;4991361;28;19926;-67
2021/01/14 03:01:24;;;;;;;;;;;;;;;;;;4990988;28;19930;-64
2021/01/14 03:03:50;;;;;;;;;;;;;;;;;;4990201;28;20068;-67
2021/01/14 03:06:17;;;;;;;;;;;;;;;;;;4990408;28;20380;-66
2021/01/14 03:08:43;;;;;;;;;;;;;;;;;;4991051;28;20478;-65
2021/01/14 03:11:10;;;;;;;;;;;;;;;;;;4989911;28;19976;-66
2021/01/14 03:13:36;;;;;;;;;;;;;;;;;;4991157;28;19972;-67
2021/01/14 03:16:03;;;;;;;;;;;;;;;;;;4988141;28;19932;-67
2021/01/14 03:18:29;;;;;;;;;;;;;;;;;;4990143;28;19979;-67
2021/01/14 03:20:55;;;;;;;;;;;;;;;;;;4990916;28;19929;-67
2021/01/14 03:23:22;;;;;;;;;;;;;;;;;;4991564;28;20021;-66
2021/01/14 03:25:48;;;;;;;;;;;;;;;;;;4993621;28;20347;-67
2021/01/14 03:28:15;;;;;;;;;;;;;;;;;;4994154;28;20379;-66
2021/01/14 03:30:41;;;;;;;;;;;;;;;;;;4990789;28;20395;-66
2021/01/14 03:33:08;;;;;;;;;;;;;;;;;;5000630;28;20396;-67
2021/01/14 03:35:34;;;;;;;;;;;;;;;;;;4994307;28;20269;-66
2021/01/14 03:38:01;;;;;;;;;;;;;;;;;;4994838;28;20290;-66
2021/01/14 03:40:27;;;;;;;;;;;;;;;;;;4994162;28;20346;-67
2021/01/14 03:42:53;;;;;;;;;;;;;;;;;;4994611;28;19929;-67
2021/01/14 03:45:20;;;;;;;;;;;;;;;;;;4993799;28;19953;-68
2021/01/14 03:47:46;;;;;;;;;;;;;;;;;;4994316;28;19997;-65
2021/01/14 03:50:13;;;;;;;;;;;;;;;;;;4995171;28;19929;-66
2021/01/14 03:52:39;;;;;;;;;;;;;;;;;;4994952;28;19934;-67
2021/01/14 03:55:06;;;;;;;;;;;;;;;;;;4994409;28;19926;-67
2021/01/14 03:57:32;;;;;;;;;;;;;;;;;;4994544;28;19926;-67
2021/01/14 03:59:59;;;;;;;;;;;;;;;;;;4995012;28;19925;-65
2021/01/14 04:02:25;;;;;;;;;;;;;;;;;;4992950;28;19930;-67
2021/01/14 04:04:52;;;;;;;;;;;;;;;;;;4993757;28;19932;-67
2021/01/14 04:07:18;;;;;;;;;;;;;;;;;;4993643;28;19934;-67
2021/01/14 04:09:44;;;;;;;;;;;;;;;;;;4993712;28;19934;-67
2021/01/14 04:12:11;;;;;;;;;;;;;;;;;;4993163;28;19930;-67
2021/01/14 04:14:37;;;;;;;;;;;;;;;;;;4993661;28;19926;-66
2021/01/14 04:17:04;;;;;;;;;;;;;;;;;;4996111;28;19936;-66
2021/01/14 04:19:30;;;;;;;;;;;;;;;;;;4995551;28;20025;-66
2021/01/14 04:21:57;;;;;;;;;;;;;;;;;;4997764;28;19944;-69
2021/01/14 04:24:23;;;;;;;;;;;;;;;;;;4997386;28;19956;-65
2021/01/14 04:26:50;;;;;;;;;;;;;;;;;;4997064;28;19940;-66
2021/01/14 04:29:16;;;;;;;;;;;;;;;;;;5000605;28;19936;-67
2021/01/14 04:31:43;;;;;;;;;;;;;;;;;;4998268;28;19936;-67
2021/01/14 04:34:09;;;;;;;;;;;;;;;;;;4997677;28;19925;-67
2021/01/14 04:36:35;;;;;;;;;;;;;;;;;;4999062;28;19926;-67
2021/01/14 04:39:02;;;;;;;;;;;;;;;;;;4996695;28;19926;-67
2021/01/14 04:41:28;;;;;;;;;;;;;;;;;;4997709;28;19932;-66
2021/01/14 04:43:55;;;;;;;;;;;;;;;;;;4994134;28;19933;-67
2021/01/14 04:46:21;;;;;;;;;;;;;;;;;;4993983;28;19932;-67
2021/01/14 04:48:48;;;;;;;;;;;;;;;;;;4992474;28;19926;-67
2021/01/14 04:51:14;;;;;;;;;;;;;;;;;;4992829;28;19925;-64
2021/01/14 04:53:41;;;;;;;;;;;;;;;;;;4992037;28;19925;-67
2021/01/14 04:56:07;;;;;;;;;;;;;;;;;;4992601;28;19926;-67
2021/01/14 04:58:34;;;;;;;;;;;;;;;;;;4993380;28;19929;-67
2021/01/14 05:01:00;;;;;;;;;;;;;;;;;;4992679;28;20777;-66
2021/01/14 05:03:27;;;;;;;;;;;;;;;;;;4992116;28;20044;-66
2021/01/14 05:05:53;;;;;;;;;;;;;;;;;;4991892;28;19937;-67
2021/01/14 05:08:20;;;;;;;;;;;;;;;;;;4991619;28;20690;-67
2021/01/14 05:10:48;;;;;;;;;;;;;;;;;;4992619;28;20020;-66
2021/01/14 05:13:15;;;;;;;;;;;;;;;;;;4992543;28;20395;-69
2021/01/14 05:15:41;;;;;;;;;;;;;;;;;;4992200;28;19933;-66
2021/01/14 05:18:07;;;;;;;;;;;;;;;;;;4992547;28;19926;-66
2021/01/14 05:20:34;;;;;;;;;;;;;;;;;;4992521;28;19926;-66
2021/01/14 05:23:03;;;;;;;;;;;;;;;;;;4992693;28;19926;-68
2021/01/14 05:25:29;;;;;;;;;;;;;;;;;;4992195;28;20438;-67
2021/01/14 05:27:56;;;;;;;;;;;;;;;;;;4991732;28;19948;-68
2021/01/14 05:30:22;;;;;;;;;;;;;;;;;;4992620;28;19980;-68
2021/01/14 05:32:51;;;;;;;;;;;;;;;;;;4992492;28;19926;-67
2021/01/14 05:35:18;;;;;;;;;;;;;;;;;;4992655;28;19926;-67
2021/01/14 05:38:00;;;;;;;;;;;;;;;;;;4991247;28;19929;-67
2021/01/14 05:40:28;;;;;;;;;;;;;;;;;;4989030;28;19926;-64
2021/01/14 05:42:55;;;;;;;;;;;;;;;;;;4991097;28;19976;-66
2021/01/14 05:45:24;;;;;;;;;;;;;;;;;;4992796;28;19930;-67
2021/01/14 05:47:50;;;;;;;;;;;;;;;;;;4991409;28;19933;-68
2021/01/14 05:50:17;;;;;;;;;;;;;;;;;;4991509;28;19926;-66
2021/01/14 05:52:44;;;;;;;;;;;;;;;;;;4991484;28;19929;-65
2021/01/14 05:55:10;;;;;;;;;;;;;;;;;;4992374;28;19926;-65
2021/01/14 05:57:38;;;;;;;;;;;;;;;;;;4991005;28;19925;-65
2021/01/14 06:00:04;;;;;;;;;;;;;;;;;;4991178;28;19930;-65
2021/01/14 06:02:31;;;;;;;;;;;;;;;;;;4991069;28;19949;-66
2021/01/14 06:04:57;;;;;;;;;;;;;;;;;;4991479;28;19976;-66
2021/01/14 06:07:24;;;;;;;;;;;;;;;;;;4992056;28;19973;-66
2021/01/14 06:09:50;;;;;;;;;;;;;;;;;;4991320;28;19933;-67
2021/01/14 06:12:17;;;;;;;;;;;;;;;;;;4991971;28;20352;-66
2021/01/14 06:14:43;;;;;;;;;;;;;;;;;;4991865;28;20112;-65
2021/01/14 06:17:10;;;;;;;;;;;;;;;;;;4991203;28;19926;-66
2021/01/14 06:19:36;;;;;;;;;;;;;;;;;;4992464;28;19926;-65
2021/01/14 06:22:02;;;;;;;;;;;;;;;;;;4991437;28;19930;-65
2021/01/14 06:24:29;;;;;;;;;;;;;;;;;;5007082;23;20172;-68
2021/01/14 06:26:55;;;;;;;;;;;;;;;;;;4992638;28;19929;-68
2021/01/14 06:29:23;;;;;;;;;;;;;;;;;;4992455;28;19926;-68
2021/01/14 06:31:52;;;;;;;;;;;;;;;;;;4991789;28;19949;-68
2021/01/14 06:34:18;;;;;;;;;;;;;;;;;;4997148;28;19926;-67
2021/01/14 06:36:45;;;;;;;;;;;;;;;;;;4998910;28;20299;-67
2021/01/14 06:39:11;;;;;;;;;;;;;;;;;;4991336;28;20008;-67
2021/01/14 06:41:38;;;;;;;;;;;;;;;;;;4990860;28;19941;-69
2021/01/14 06:44:04;;;;;;;;;;;;;;;;;;4992283;28;19937;-68
2021/01/14 06:46:31;;;;;;;;;;;;;;;;;;4990230;28;20280;-68
2021/01/14 06:48:57;;;;;;;;;;;;;;;;;;4989738;28;19926;-68
2021/01/14 06:51:24;;;;;;;;;;;;;;;;;;4991478;28;19926;-68
2021/01/14 06:53:50;;;;;;;;;;;;;;;;;;4990259;28;19996;-68
2021/01/14 06:56:17;;;;;;;;;;;;;;;;;;4991043;28;19926;-68
2021/01/14 06:58:43;;;;;;;;;;;;;;;;;;4989505;28;20350;-68
2021/01/14 07:01:09;;;;;;;;;;;;;;;;;;4991258;28;20318;-68
2021/01/14 07:03:36;;;;;;;;;;;;;;;;;;4990827;28;20400;-68
2021/01/14 07:06:02;;;;;;;;;;;;;;;;;;4990845;28;19929;-68
2021/01/14 07:08:29;;;;;;;;;;;;;;;;;;4991040;28;19926;-68
2021/01/14 07:10:56;;;;;;;;;;;;;;;;;;4991579;28;19925;-68
2021/01/14 07:13:22;;;;;;;;;;;;;;;;;;4989860;28;19930;-68
2021/01/14 07:15:48;;;;;;;;;;;;;;;;;;4990730;28;19926;-69
2021/01/14 07:18:15;;;;;;;;;;;;;;;;;;4990412;28;19930;-68
2021/01/14 07:20:41;;;;;;;;;;;;;;;;;;4990920;28;19926;-68
2021/01/14 07:23:08;;;;;;;;;;;;;;;;;;4990909;28;19932;-69
2021/01/14 07:25:34;;;;;;;;;;;;;;;;;;4989700;28;19929;-69
2021/01/14 07:28:01;;;;;;;;;;;;;;;;;;4991144;28;19987;-68
2021/01/14 07:30:27;;;;;;;;;;;;;;;;;;4990210;28;19926;-69
2021/01/14 07:32:53;;;;;;;;;;;;;;;;;;4991086;28;19976;-69
2021/01/14 07:35:20;;;;;;;;;;;;;;;;;;4990369;28;19933;-69
2021/01/14 07:37:46;;;;;;;;;;;;;;;;;;4990886;28;19926;-68
2021/01/14 07:40:13;;;;;;;;;;;;;;;;;;4989982;28;19930;-69
2021/01/14 07:42:39;;;;;;;;;;;;;;;;;;4988099;28;19930;-69
2021/01/14 07:45:06;;;;;;;;;;;;;;;;;;4989226;28;19926;-69
2021/01/14 07:47:32;;;;;;;;;;;;;;;;;;4989163;28;19926;-69
2021/01/14 07:49:59;;;;;;;;;;;;;;;;;;4989514;28;19932;-69
2021/01/14 07:52:25;;;;;;;;;;;;;;;;;;4987715;28;20307;-69
2021/01/14 07:54:52;;;;;;;;;;;;;;;;;;4985497;28;19968;-69
2021/01/14 07:57:18;;;;;;;;;;;;;;;;;;4987169;28;19926;-68
2021/01/14 07:59:53;;;;;;;;;;;;;;;;;;4988654;28;19932;-68
2021/01/14 08:02:19;;;;;;;;;;;;;;;;;;4988370;28;19934;-68
2021/01/14 08:04:47;;;;;;;;;;;;;;;;;;4984932;28;20288;-68
2021/01/14 08:07:13;;;;;;;;;;;;;;;;;;4988771;28;20044;-68
2021/01/14 08:09:40;;;;;;;;;;;;;;;;;;4987371;28;19975;-65
2021/01/14 08:12:06;;;;;;;;;;;;;;;;;;4992300;28;19926;-67
2021/01/14 08:14:33;;;;;;;;;;;;;;;;;;4993159;28;19926;-66
2021/01/14 08:16:59;;;;;;;;;;;;;;;;;;4990942;28;21288;-66
2021/01/14 08:19:26;;;;;;;;;;;;;;;;;;4991488;28;20501;-66
2021/01/14 08:21:52;;;;;;;;;;;;;;;;;;4993113;28;19938;-67
2021/01/14 08:24:19;;;;;;;;;;;;;;;;;;4990169;28;20021;-67
2021/01/14 08:26:45;;;;;;;;;;;;;;;;;;4988981;28;19926;-67
2021/01/14 08:29:12;;;;;;;;;;;;;;;;;;4991516;28;19925;-66
2021/01/14 08:31:38;;;;;;;;;;;;;;;;;;4993253;28;20142;-67
2021/01/14 08:34:05;;;;;;;;;;;;;;;;;;4992179;28;21580;-67
2021/01/14 08:36:31;;;;;;;;;;;;;;;;;;4991475;28;19961;-69
2021/01/14 08:38:58;;;;;;;;;;;;;;;;;;4991279;28;19956;-68
2021/01/14 08:41:24;;;;;;;;;;;;;;;;;;4991725;28;19933;-68
2021/01/14 08:43:51;;;;;;;;;;;;;;;;;;4992863;28;20340;-69
2021/01/14 08:46:17;;;;;;;;;;;;;;;;;;4989285;28;19933;-69
2021/01/14 08:48:43;;;;;;;;;;;;;;;;;;4991570;28;19932;-68
2021/01/14 08:51:10;;;;;;;;;;;;;;;;;;4990292;28;19937;-68
2021/01/14 08:53:37;;;;;;;;;;;;;;;;;;4992118;28;19926;-68
2021/01/14 08:56:03;;;;;;;;;;;;;;;;;;4990832;28;20297;-67
2021/01/14 08:58:30;;;;;;;;;;;;;;;;;;4996388;28;19937;-68
2021/01/14 09:00:56;;;;;;;;;;;;;;;;;;4991923;28;20013;-67
2021/01/14 09:03:26;;;;;;;;;;;;;;;;;;4989502;28;19932;-68
2021/01/14 09:05:52;;;;;;;;;;;;;;;;;;4990731;28;19926;-68
2021/01/14 09:08:19;;;;;;;;;;;;;;;;;;4989187;28;19980;-69
2021/01/14 09:10:45;;;;;;;;;;;;;;;;;;4991041;28;19932;-68
2021/01/14 09:13:12;;;;;;;;;;;;;;;;;;4992090;28;20465;-69
2021/01/14 09:15:38;;;;;;;;;;;;;;;;;;4991635;28;19934;-68
2021/01/14 09:18:04;;;;;;;;;;;;;;;;;;4990988;28;19926;-68
2021/01/14 09:20:31;;;;;;;;;;;;;;;;;;4989942;28;19926;-68
2021/01/14 09:22:58;;;;;;;;;;;;;;;;;;4991419;28;19995;-70
2021/01/14 09:25:25;;;;;;;;;;;;;;;;;;4991735;28;19934;-68
2021/01/14 09:27:51;;;;;;;;;;;;;;;;;;4990966;28;19926;-68
2021/01/14 09:30:18;;;;;;;;;;;;;;;;;;4990053;28;20447;-68
2021/01/14 09:32:44;;;;;;;;;;;;;;;;;;4991900;28;19932;-67
2021/01/14 09:35:11;;;;;;;;;;;;;;;;;;4989723;28;19926;-68
2021/01/14 09:37:37;;;;;;;;;;;;;;;;;;4990476;28;19972;-68
2021/01/14 09:40:04;;;;;;;;;;;;;;;;;;4992473;28;19925;-68
2021/01/14 09:42:30;;;;;;;;;;;;;;;;;;4992666;28;19937;-68
2021/01/14 09:44:56;;;;;;;;;;;;;;;;;;4991343;28;20072;-68
2021/01/14 09:47:23;;;;;;;;;;;;;;;;;;4988962;28;20411;-68
2021/01/14 09:49:50;;;;;;;;;;;;;;;;;;4990057;28;19930;-67
2021/01/14 09:52:16;;;;;;;;;;;;;;;;;;4991025;28;19925;-67
2021/01/14 09:54:42;;;;;;;;;;;;;;;;;;4990911;28;19952;-67
2021/01/14 09:57:10;;;;;;;;;;;;;;;;;;4983716;28;20089;-70
2021/01/14 09:59:37;;;;;;;;;;;;;;;;;;4990745;28;19933;-69
2021/01/14 10:02:03;;;;;;;;;;;;;;;;;;4991403;28;19925;-69
2021/01/14 10:04:30;;;;;;;;;;;;;;;;;;4989619;28;19977;-67
2021/01/14 10:06:56;;;;;;;;;;;;;;;;;;4990356;28;19936;-67
2021/01/14 10:09:23;;;;;;;;;;;;;;;;;;4991406;28;20008;-67
2021/01/14 10:11:49;;;;;;;;;;;;;;;;;;4990317;28;19934;-68
2021/01/14 10:14:16;;;;;;;;;;;;;;;;;;4991237;28;19940;-68
2021/01/14 10:16:42;;;;;;;;;;;;;;;;;;4990585;28;19934;-66
2021/01/14 10:19:09;;;;;;;;;;;;;;;;;;4988614;28;19926;-69
2021/01/14 10:21:35;;;;;;;;;;;;;;;;;;4990466;28;19933;-67
2021/01/14 10:24:01;;;;;;;;;;;;;;;;;;4991468;28;19929;-67
2021/01/14 10:26:28;;;;;;;;;;;;;;;;;;4991893;28;19934;-67
2021/01/14 10:28:54;;;;;;;;;;;;;;;;;;4990685;28;19934;-67
2021/01/14 10:31:21;;;;;;;;;;;;;;;;;;4991170;28;20017;-68
2021/01/14 10:33:47;;;;;;;;;;;;;;;;;;4989152;28;20304;-67
2021/01/14 10:36:14;;;;;;;;;;;;;;;;;;4987864;28;20587;-66
2021/01/14 10:38:40;;;;;;;;;;;;;;;;;;4989581;28;19925;-66
2021/01/14 10:41:07;;;;;;;;;;;;;;;;;;4990279;28;19925;-67
2021/01/14 10:43:34;;;;;;;;;;;;;;;;;;4990147;28;19932;-69
2021/01/14 10:46:01;;;;;;;;;;;;;;;;;;4989724;28;19972;-66
2021/01/14 10:48:27;;;;;;;;;;;;;;;;;;4991547;28;19952;-67
2021/01/14 10:50:54;;;;;;;;;;;;;;;;;;4984784;28;19930;-67
2021/01/14 10:53:21;;;;;;;;;;;;;;;;;;4993920;28;19926;-67
2021/01/14 10:55:47;;;;;;;;;;;;;;;;;;4989145;28;19940;-67
2021/01/14 10:58:14;;;;;;;;;;;;;;;;;;4989364;28;20127;-67
2021/01/14 11:00:41;;;;;;;;;;;;;;;;;;4989585;28;19952;-68
2021/01/14 11:03:08;;;;;;;;;;;;;;;;;;4988835;28;19930;-67
2021/01/14 11:05:34;;;;;;;;;;;;;;;;;;4989867;28;20066;-68
2021/01/14 11:08:00;;;;;;;;;;;;;;;;;;4987265;28;20532;-69
2021/01/14 11:10:27;;;;;;;;;;;;;;;;;;4985925;28;20554;-69
2021/01/14 11:12:53;;;;;;;;;;;;;;;;;;4986223;28;19985;-70
2021/01/14 11:15:20;;;;;;;;;;;;;;;;;;4989070;28;20012;-70
2021/01/14 11:17:46;;;;;;;;;;;;;;;;;;4983806;28;19933;-70
2021/01/14 11:20:13;;;;;;;;;;;;;;;;;;4989208;28;20423;-69
2021/01/14 11:22:39;;;;;;;;;;;;;;;;;;4994668;28;19929;-70
2021/01/14 11:25:06;;;;;;;;;;;;;;;;;;4992858;28;19971;-70
2021/01/14 11:27:32;;;;;;;;;;;;;;;;;;4988593;28;19926;-70
2021/01/14 11:29:59;;;;;;;;;;;;;;;;;;4989603;28;19929;-70
2021/01/14 11:32:25;;;;;;;;;;;;;;;;;;4990488;28;19934;-69
2021/01/14 11:34:55;;;;;;;;;;;;;;;;;;4988922;28;20040;-70
2021/01/14 11:37:21;;;;;;;;;;;;;;;;;;4986843;28;20379;-68
2021/01/14 11:39:48;;;;;;;;;;;;;;;;;;4987325;28;20303;-68
2021/01/14 11:42:14;;;;;;;;;;;;;;;;;;4990962;28;19932;-69
2021/01/14 11:44:41;;;;;;;;;;;;;;;;;;4992162;28;19926;-70
2021/01/14 11:47:07;;;;;;;;;;;;;;;;;;4991906;28;19926;-71
2021/01/14 11:49:34;;;;;;;;;;;;;;;;;;4993656;28;19926;-70
2021/01/14 11:52:01;;;;;;;;;;;;;;;;;;4991388;28;19925;-68
2021/01/14 11:54:27;;;;;;;;;;;;;;;;;;4994681;28;20013;-69
2021/01/14 11:56:54;;;;;;;;;;;;;;;;;;4993946;28;20028;-70
2021/01/14 11:59:20;;;;;;;;;;;;;;;;;;4996189;28;19933;-67
2021/01/14 12:01:47;;;;;;;;;;;;;;;;;;4996065;28;19926;-69
2021/01/14 12:04:13;;;;;;;;;;;;;;;;;;4996069;28;20017;-69
2021/01/14 12:06:40;;;;;;;;;;;;;;;;;;4993385;28;20005;-69
2021/01/14 12:09:06;;;;;;;;;;;;;;;;;;4995585;28;20016;-69
2021/01/14 12:11:33;;;;;;;;;;;;;;;;;;4995587;28;20330;-70
2021/01/14 12:13:59;;;;;;;;;;;;;;;;;;4994691;28;19965;-68
2021/01/14 12:16:26;;;;;;;;;;;;;;;;;;4993913;28;19948;-69
2021/01/14 12:18:52;;;;;;;;;;;;;;;;;;4994451;28;20400;-69
2021/01/14 12:21:19;;;;;;;;;;;;;;;;;;4993010;28;19933;-68
2021/01/14 12:23:45;;;;;;;;;;;;;;;;;;4995942;28;20590;-68
2021/01/14 12:26:12;;;;;;;;;;;;;;;;;;4992326;28;19925;-69
2021/01/14 12:28:38;;;;;;;;;;;;;;;;;;5010557;23;20028;-67
2021/01/14 12:31:05;;;;;;;;;;;;;;;;;;4993867;28;19973;-70
2021/01/14 12:33:31;;;;;;;;;;;;;;;;;;4992978;28;20365;-68
2021/01/14 12:35:58;;;;;;;;;;;;;;;;;;4998442;28;19936;-64
2021/01/14 12:38:24;;;;;;;;;;;;;;;;;;4992161;28;20262;-68
2021/01/14 12:40:51;;;;;;;;;;;;;;;;;;4992842;28;20426;-68
2021/01/14 12:43:17;;;;;;;;;;;;;;;;;;5000693;28;19926;-69
2021/01/14 12:45:43;;;;;;;;;;;;;;;;;;5004176;28;20021;-66
2021/01/14 12:48:10;;;;;;;;;;;;;;;;;;5001641;28;20407;-65
2021/01/14 12:50:36;;;;;;;;;;;;;;;;;;4995014;28;20208;-68
2021/01/14 12:53:03;;;;;;;;;;;;;;;;;;4997952;28;19926;-66
2021/01/14 12:55:30;;;;;;;;;;;;;;;;;;5004159;28;19965;-66
2021/01/14 12:57:56;;;;;;;;;;;;;;;;;;5003315;28;19936;-67
2021/01/14 13:00:23;;;;;;;;;;;;;;;;;;5002789;28;19929;-66
2021/01/14 13:02:49;;;;;;;;;;;;;;;;;;4997068;28;20479;-67
2021/01/14 13:05:18;;;;;;;;;;;;;;;;;;4994137;28;19996;-68
2021/01/14 13:07:44;;;;;;;;;;;;;;;;;;4993804;28;19938;-66
2021/01/14 13:10:11;;;;;;;;;;;;;;;;;;4998418;28;19934;-66
2021/01/14 13:12:37;;;;;;;;;;;;;;;;;;4994623;28;20025;-65
2021/01/14 13:15:04;;;;;;;;;;;;;;;;;;4993736;28;20028;-65
2021/01/14 13:17:30;;;;;;;;;;;;;;;;;;4993607;28;19996;-66
2021/01/14 13:19:58;;;;;;;;;;;;;;;;;;4994498;28;19926;-69
2021/01/14 13:22:24;;;;;;;;;;;;;;;;;;4993589;28;19926;-66
2021/01/14 13:24:50;;;;;;;;;;;;;;;;;;4993252;28;19926;-65
2021/01/14 13:27:17;;;;;;;;;;;;;;;;;;4992506;28;19925;-65
2021/01/14 13:29:43;;;;;;;;;;;;;;;;;;4988873;28;20014;-67
2021/01/14 13:32:10;;;;;;;;;;;;;;;;;;4993135;28;19972;-66
2021/01/14 13:34:36;;;;;;;;;;;;;;;;;;4992448;28;20348;-66
2021/01/14 13:37:03;;;;;;;;;;;;;;;;;;4992457;28;19980;-66
2021/01/14 13:39:31;;;;;;;;;;;;;;;;;;4992118;28;19979;-65
2021/01/14 13:41:57;;;;;;;;;;;;;;;;;;4992411;28;19973;-68
2021/01/14 13:44:24;;;;;;;;;;;;;;;;;;4993434;28;19925;-71
2021/01/14 13:46:50;;;;;;;;;;;;;;;;;;4991767;28;19999;-66
2021/01/14 13:49:18;;;;;;;;;;;;;;;;;;4993420;28;20005;-66
2021/01/14 13:51:47;;;;;;;;;;;;;;;;;;4990934;28;19926;-67
2021/01/14 13:54:13;;;;;;;;;;;;;;;;;;4992453;28;19985;-65
2021/01/14 13:56:40;;;;;;;;;;;;;;;;;;4992267;28;19926;-66
2021/01/14 13:59:06;;;;;;;;;;;;;;;;;;4987479;28;19965;-67
2021/01/14 14:01:33;;;;;;;;;;;;;;;;;;4990478;28;20295;-65
2021/01/14 14:03:59;;;;;;;;;;;;;;;;;;4992728;28;20586;-67
2021/01/14 14:06:26;;;;;;;;;;;;;;;;;;4991901;28;20020;-67
2021/01/14 14:08:52;;;;;;;;;;;;;;;;;;4990494;28;20065;-66
2021/01/14 14:11:19;;;;;;;;;;;;;;;;;;4991033;28;19930;-67
2021/01/14 14:13:45;;;;;;;;;;;;;;;;;;5001837;28;19929;-69
2021/01/14 14:16:12;;;;;;;;;;;;;;;;;;4997504;28;19981;-68
2021/01/14 14:18:38;;;;;;;;;;;;;;;;;;4996887;28;20025;-70
2021/01/14 14:21:05;;;;;;;;;;;;;;;;;;4996190;28;20025;-69
2021/01/14 14:23:31;;;;;;;;;;;;;;;;;;4990196;28;19933;-68
2021/01/14 14:25:58;;;;;;;;;;;;;;;;;;4989458;28;19941;-68
2021/01/14 14:28:24;;;;;;;;;;;;;;;;;;4986427;28;19929;-69
2021/01/14 14:30:51;;;;;;;;;;;;;;;;;;4989318;28;19925;-69
2021/01/14 14:33:17;;;;;;;;;;;;;;;;;;4992809;28;19925;-68
2021/01/14 14:35:44;;;;;;;;;;;;;;;;;;4992729;28;19979;-68
2021/01/14 14:38:10;;;;;;;;;;;;;;;;;;4991521;28;19973;-68
2021/01/14 14:40:37;;;;;;;;;;;;;;;;;;4992257;28;19983;-68
2021/01/14 14:43:03;;;;;;;;;;;;;;;;;;4991588;28;19933;-68
2021/01/14 14:45:30;;;;;;;;;;;;;;;;;;4990108;28;20020;-69
2021/01/14 14:47:56;;;;;;;;;;;;;;;;;;4990809;28;19926;-68
2021/01/14 14:50:23;;;;;;;;;;;;;;;;;;4988006;28;19930;-67
2021/01/14 14:52:49;;;;;;;;;;;;;;;;;;4992025;28;20404;-67
2021/01/14 14:55:15;;;;;;;;;;;;;;;;;;4991974;28;19926;-67
2021/01/14 14:57:42;;;;;;;;;;;;;;;;;;4987120;28;20306;-67
2021/01/14 15:00:08;;;;;;;;;;;;;;;;;;4990683;28;19972;-67
2021/01/14 15:02:35;;;;;;;;;;;;;;;;;;4991501;28;19965;-69
2021/01/14 15:05:02;;;;;;;;;;;;;;;;;;4990568;28;20455;-68
2021/01/14 15:07:28;;;;;;;;;;;;;;;;;;4983608;28;19973;-66
2021/01/14 15:09:55;;;;;;;;;;;;;;;;;;4989933;28;20020;-67
2021/01/14 15:12:21;;;;;;;;;;;;;;;;;;4989363;28;19933;-66
2021/01/14 15:14:48;;;;;;;;;;;;;;;;;;4991562;28;19980;-67
2021/01/14 15:17:14;;;;;;;;;;;;;;;;;;4985410;28;19977;-67
2021/01/14 15:19:41;;;;;;;;;;;;;;;;;;4988534;28;19926;-67
2021/01/14 15:22:07;;;;;;;;;;;;;;;;;;4989321;28;19926;-68
2021/01/14 15:24:33;;;;;;;;;;;;;;;;;;4990558;28;20008;-67
2021/01/14 15:27:00;;;;;;;;;;;;;;;;;;4988605;28;19926;-68
2021/01/14 15:29:26;;;;;;;;;;;;;;;;;;4982468;28;19926;-67
2021/01/14 15:31:53;;;;;;;;;;;;;;;;;;4982749;28;20656;-69
2021/01/14 15:34:21;;;;;;;;;;;;;;;;;;4980041;28;21391;-68
2021/01/14 15:36:47;;;;;;;;;;;;;;;;;;4984628;28;19926;-68
2021/01/14 15:39:14;;;;;;;;;;;;;;;;;;4982914;28;20340;-67
2021/01/14 15:41:40;;;;;;;;;;;;;;;;;;4986008;28;20411;-67
2021/01/14 15:44:07;;;;;;;;;;;;;;;;;;4983136;28;20027;-68
2021/01/14 15:46:33;;;;;;;;;;;;;;;;;;4983163;28;19932;-66
2021/01/14 15:48:59;;;;;;;;;;;;;;;;;;4991081;28;19930;-66
2021/01/14 15:51:26;;;;;;;;;;;;;;;;;;4992213;28;19934;-66
2021/01/14 15:53:52;;;;;;;;;;;;;;;;;;4991352;28;19983;-68
2021/01/14 15:56:19;;;;;;;;;;;;;;;;;;4995374;28;19949;-67
2021/01/14 15:58:45;;;;;;;;;;;;;;;;;;4997468;28;19989;-66
2021/01/14 16:01:12;;;;;;;;;;;;;;;;;;4995944;28;19984;-66
2021/01/14 16:03:38;;;;;;;;;;;;;;;;;;4993132;28;20019;-66
2021/01/14 16:06:05;;;;;;;;;;;;;;;;;;4993212;28;20025;-66
2021/01/14 16:08:31;;;;;;;;;;;;;;;;;;4992252;28;19933;-66
2021/01/14 16:10:58;;;;;;;;;;;;;;;;;;4992797;28;20024;-65
2021/01/14 16:13:24;;;;;;;;;;;;;;;;;;4991640;28;19976;-66
2021/01/14 16:15:51;;;;;;;;;;;;;;;;;;4991286;28;19930;-65
2021/01/14 16:18:17;;;;;;;;;;;;;;;;;;4990291;28;19925;-64
2021/01/14 16:20:43;;;;;;;;;;;;;;;;;;4991982;28;19926;-65
2021/01/14 16:23:10;;;;;;;;;;;;;;;;;;4992557;28;19926;-66
2021/01/14 16:25:36;;;;;;;;;;;;;;;;;;4991088;28;19964;-67
2021/01/14 16:28:03;;;;;;;;;;;;;;;;;;4991275;28;19926;-66
2021/01/14 16:30:29;;;;;;;;;;;;;;;;;;4992933;28;19933;-66
2021/01/14 16:32:56;;;;;;;;;;;;;;;;;;4995180;28;19926;-65
2021/01/14 16:35:22;;;;;;;;;;;;;;;;;;4995816;28;19926;-66
2021/01/14 16:37:49;;;;;;;;;;;;;;;;;;4994299;28;20060;-69
2021/01/14 16:40:15;;;;;;;;;;;;;;;;;;4991178;28;19926;-66
2021/01/14 16:42:43;;;;;;;;;;;;;;;;;;4994440;28;19926;-67